Terminal Aerodrome Forecast
Issued by NWS

Home | Current Version | Previous Version | Text Only | Print | Product List | Glossary Off
Versions: 1 2 3 4 5 6 7 8 9 10 11 12 13 14

318
FTUS43 KTOP 031421 AAA
TAFFOE
TAF AMD
KFOE 031421Z 0314/0412 32018G31KT P6SM BKN021
     FM031700 32016KT P6SM SCT030
     FM040000 31007KT P6SM SKC=

USA.gov is the U.S. government's official web portal to all federal, state and local government web resources and services.